sensor_id;sensor_type;location;lat;lon;timestamp;temperature;humidity
3312;DHT22;1668;49.648;8.570;2023-07-20T00:00:09;21.20;99.90
3312;DHT22;1668;49.648;8.570;2023-07-20T00:02:39;21.10;99.90
3312;DHT22;1668;49.648;8.570;2023-07-20T00:05:06;21.00;99.90
3312;DHT22;1668;49.648;8.570;2023-07-20T00:07:33;21.00;99.90
3312;DHT22;1668;49.648;8.570;2023-07-20T00:10:00;20.90;99.90
3312;DHT22;1668;49.648;8.570;2023-07-20T00:12:27;20.90;99.90
3312;DHT22;1668;49.648;8.570;2023-07-20T00:14:53;20.90;99.90
3312;DHT22;1668;49.648;8.570;2023-07-20T00:17:22;20.90;99.90
3312;DHT22;1668;49.648;8.570;2023-07-20T00:19:48;20.80;99.90
3312;DHT22;1668;49.648;8.570;2023-07-20T00:22:15;20.80;99.90
3312;DHT22;1668;49.648;8.570;2023-07-20T00:24:42;20.70;99.90
3312;DHT22;1668;49.648;8.570;2023-07-20T00:27:09;20.80;99.90
3312;DHT22;1668;49.648;8.570;2023-07-20T00:29:36;20.80;99.90
3312;DHT22;1668;49.648;8.570;2023-07-20T00:32:03;20.70;99.90
3312;DHT22;1668;49.648;8.570;2023-07-20T00:34:33;20.70;99.90
3312;DHT22;1668;49.648;8.570;2023-07-20T00:37:00;20.70;99.90
3312;DHT22;1668;49.648;8.570;2023-07-20T00:39:26;20.70;99.90
3312;DHT22;1668;49.648;8.570;2023-07-20T00:41:53;20.80;99.90
3312;DHT22;1668;49.648;8.570;2023-07-20T00:44:20;20.80;99.90
3312;DHT22;1668;49.648;8.570;2023-07-20T00:46:47;20.80;99.90
3312;DHT22;1668;49.648;8.570;2023-07-20T00:49:15;20.80;99.90
3312;DHT22;1668;49.648;8.570;2023-07-20T00:51:44;20.80;99.90
3312;DHT22;1668;49.648;8.570;2023-07-20T00:54:11;20.70;99.90
3312;DHT22;1668;49.648;8.570;2023-07-20T00:56:38;20.80;99.90
3312;DHT22;1668;49.648;8.570;2023-07-20T00:59:05;20.80;99.90
3312;DHT22;1668;49.648;8.570;2023-07-20T01:01:33;20.80;99.90
3312;DHT22;1668;49.648;8.570;2023-07-20T01:03:59;20.70;99.90
3312;DHT22;1668;49.648;8.570;2023-07-20T01:06:48;20.60;99.90
3312;DHT22;1668;49.648;8.570;2023-07-20T01:09:19;20.50;99.90
3312;DHT22;1668;49.648;8.570;2023-07-20T01:11:53;20.40;99.90
3312;DHT22;1668;49.648;8.570;2023-07-20T01:14:22;20.40;99.90
3312;DHT22;1668;49.648;8.570;2023-07-20T01:16:50;20.40;99.90
3312;DHT22;1668;49.648;8.570;2023-07-20T01:19:17;20.30;99.90
3312;DHT22;1668;49.648;8.570;2023-07-20T01:21:51;20.20;99.90
3312;DHT22;1668;49.648;8.570;2023-07-20T01:24:38;20.20;1.00
3312;DHT22;1668;49.648;8.570;2023-07-20T01:27:27;20.10;1.00
3312;DHT22;1668;49.648;8.570;2023-07-20T01:30:24;20.00;1.00
3312;DHT22;1668;49.648;8.570;2023-07-20T01:32:55;20.00;1.00
3312;DHT22;1668;49.648;8.570;2023-07-20T01:35:25;19.90;1.00
3312;DHT22;1668;49.648;8.570;2023-07-20T01:37:54;20.00;1.00
3312;DHT22;1668;49.648;8.570;2023-07-20T01:40:22;20.10;1.00
3312;DHT22;1668;49.648;8.570;2023-07-20T01:42:51;20.00;1.00
3312;DHT22;1668;49.648;8.570;2023-07-20T01:45:19;20.00;1.00
3312;DHT22;1668;49.648;8.570;2023-07-20T01:47:46;19.90;1.00
3312;DHT22;1668;49.648;8.570;2023-07-20T01:50:14;19.90;1.00
3312;DHT22;1668;49.648;8.570;2023-07-20T01:52:41;19.90;1.00
3312;DHT22;1668;49.648;8.570;2023-07-20T01:55:08;19.80;1.00
3312;DHT22;1668;49.648;8.570;2023-07-20T01:57:35;19.80;1.00
3312;DHT22;1668;49.648;8.570;2023-07-20T02:00:04;19.60;1.00
3312;DHT22;1668;49.648;8.570;2023-07-20T02:02:31;19.50;1.00
3312;DHT22;1668;49.648;8.570;2023-07-20T02:04:58;19.60;1.00
3312;DHT22;1668;49.648;8.570;2023-07-20T02:07:26;19.60;1.00
3312;DHT22;1668;49.648;8.570;2023-07-20T02:09:53;19.60;1.00
3312;DHT22;1668;49.648;8.570;2023-07-20T02:12:20;19.60;1.00
3312;DHT22;1668;49.648;8.570;2023-07-20T02:14:47;19.60;1.00
3312;DHT22;1668;49.648;8.570;2023-07-20T02:17:15;19.60;1.00
3312;DHT22;1668;49.648;8.570;2023-07-20T02:19:42;19.60;1.00
3312;DHT22;1668;49.648;8.570;2023-07-20T02:22:09;19.60;1.00
3312;DHT22;1668;49.648;8.570;2023-07-20T02:24:37;19.60;1.00
3312;DHT22;1668;49.648;8.570;2023-07-20T02:27:05;19.60;1.00
3312;DHT22;1668;49.648;8.570;2023-07-20T02:29:32;19.60;1.00
3312;DHT22;1668;49.648;8.570;2023-07-20T02:31:59;19.60;1.00
3312;DHT22;1668;49.648;8.570;2023-07-20T02:34:26;19.60;1.00
3312;DHT22;1668;49.648;8.570;2023-07-20T02:36:53;19.50;1.00
3312;DHT22;1668;49.648;8.570;2023-07-20T02:39:21;19.50;1.00
3312;DHT22;1668;49.648;8.570;2023-07-20T02:41:49;19.50;1.00
3312;DHT22;1668;49.648;8.570;2023-07-20T02:44:16;19.50;1.00
3312;DHT22;1668;49.648;8.570;2023-07-20T02:46:43;19.50;1.00
3312;DHT22;1668;49.648;8.570;2023-07-20T02:49:10;19.50;1.00
3312;DHT22;1668;49.648;8.570;2023-07-20T02:51:37;19.40;1.00
3312;DHT22;1668;49.648;8.570;2023-07-20T02:54:04;19.40;1.00
3312;DHT22;1668;49.648;8.570;2023-07-20T02:56:31;19.40;1.00
3312;DHT22;1668;49.648;8.570;2023-07-20T02:59:01;19.40;1.00
3312;DHT22;1668;49.648;8.570;2023-07-20T03:01:28;19.30;1.00
3312;DHT22;1668;49.648;8.570;2023-07-20T03:03:55;19.20;1.00
3312;DHT22;1668;49.648;8.570;2023-07-20T03:06:23;19.20;1.00
3312;DHT22;1668;49.648;8.570;2023-07-20T03:08:50;19.20;1.00
3312;DHT22;1668;49.648;8.570;2023-07-20T03:11:19;19.20;1.00
3312;DHT22;1668;49.648;8.570;2023-07-20T03:13:47;19.20;1.00
3312;DHT22;1668;49.648;8.570;2023-07-20T03:16:18;19.20;1.00
3312;DHT22;1668;49.648;8.570;2023-07-20T03:18:45;19.20;1.00
3312;DHT22;1668;49.648;8.570;2023-07-20T03:21:12;19.20;1.00
3312;DHT22;1668;49.648;8.570;2023-07-20T03:23:40;19.10;1.00
3312;DHT22;1668;49.648;8.570;2023-07-20T03:26:07;19.10;1.00
3312;DHT22;1668;49.648;8.570;2023-07-20T03:28:34;19.00;1.00
3312;DHT22;1668;49.648;8.570;2023-07-20T03:31:01;19.00;1.00
3312;DHT22;1668;49.648;8.570;2023-07-20T03:33:30;18.90;1.00
3312;DHT22;1668;49.648;8.570;2023-07-20T03:35:57;18.90;1.00
3312;DHT22;1668;49.648;8.570;2023-07-20T03:38:25;18.80;1.00
3312;DHT22;1668;49.648;8.570;2023-07-20T03:40:53;18.80;1.00
3312;DHT22;1668;49.648;8.570;2023-07-20T03:43:21;18.80;1.00
3312;DHT22;1668;49.648;8.570;2023-07-20T03:45:47;18.80;1.00
3312;DHT22;1668;49.648;8.570;2023-07-20T03:48:15;18.80;1.00
3312;DHT22;1668;49.648;8.570;2023-07-20T03:50:44;18.70;1.00
3312;DHT22;1668;49.648;8.570;2023-07-20T03:53:11;18.70;1.00
3312;DHT22;1668;49.648;8.570;2023-07-20T03:55:37;18.70;1.00
3312;DHT22;1668;49.648;8.570;2023-07-20T03:58:06;18.70;1.00
3312;DHT22;1668;49.648;8.570;2023-07-20T04:00:33;18.60;1.00
3312;DHT22;1668;49.648;8.570;2023-07-20T04:03:00;18.60;1.00
3312;DHT22;1668;49.648;8.570;2023-07-20T04:05:27;18.60;1.00
3312;DHT22;1668;49.648;8.570;2023-07-20T04:07:55;18.60;1.00
3312;DHT22;1668;49.648;8.570;2023-07-20T04:10:22;18.60;1.00
3312;DHT22;1668;49.648;8.570;2023-07-20T04:12:49;18.60;1.00
3312;DHT22;1668;49.648;8.570;2023-07-20T04:15:16;18.60;1.00
3312;DHT22;1668;49.648;8.570;2023-07-20T04:17:43;18.60;1.00
3312;DHT22;1668;49.648;8.570;2023-07-20T04:20:11;18.50;1.00
3312;DHT22;1668;49.648;8.570;2023-07-20T04:22:38;18.40;1.00
3312;DHT22;1668;49.648;8.570;2023-07-20T04:25:07;18.40;1.00
3312;DHT22;1668;49.648;8.570;2023-07-20T04:27:35;18.40;1.00
3312;DHT22;1668;49.648;8.570;2023-07-20T04:30:02;18.40;1.00
3312;DHT22;1668;49.648;8.570;2023-07-20T04:32:29;18.30;1.00
3312;DHT22;1668;49.648;8.570;2023-07-20T04:34:59;18.30;10.80
3312;DHT22;1668;49.648;8.570;2023-07-20T04:37:26;18.30;4.40
3312;DHT22;1668;49.648;8.570;2023-07-20T04:39:53;18.30;6.90
3312;DHT22;1668;49.648;8.570;2023-07-20T04:42:21;18.30;1.00
3312;DHT22;1668;49.648;8.570;2023-07-20T04:44:48;18.30;25.60
3312;DHT22;1668;49.648;8.570;2023-07-20T04:47:15;18.30;1.00
3312;DHT22;1668;49.648;8.570;2023-07-20T04:49:41;18.40;1.00
3312;DHT22;1668;49.648;8.570;2023-07-20T04:52:08;18.40;1.00
3312;DHT22;1668;49.648;8.570;2023-07-20T04:54:35;18.40;12.30
3312;DHT22;1668;49.648;8.570;2023-07-20T04:57:02;18.40;38.00
3312;DHT22;1668;49.648;8.570;2023-07-20T04:59:33;18.30;5.30
3312;DHT22;1668;49.648;8.570;2023-07-20T05:01:59;18.30;19.10
3312;DHT22;1668;49.648;8.570;2023-07-20T05:04:26;18.40;99.90
3312;DHT22;1668;49.648;8.570;2023-07-20T05:06:53;18.40;23.60
3312;DHT22;1668;49.648;8.570;2023-07-20T05:09:20;18.40;99.90
3312;DHT22;1668;49.648;8.570;2023-07-20T05:11:48;18.40;71.60
3312;DHT22;1668;49.648;8.570;2023-07-20T05:14:15;18.40;53.00
3312;DHT22;1668;49.648;8.570;2023-07-20T05:16:43;18.40;99.90
3312;DHT22;1668;49.648;8.570;2023-07-20T05:19:10;18.40;99.90
3312;DHT22;1668;49.648;8.570;2023-07-20T05:21:37;18.40;99.90
3312;DHT22;1668;49.648;8.570;2023-07-20T05:24:04;18.50;99.90
3312;DHT22;1668;49.648;8.570;2023-07-20T05:26:31;18.50;99.90
3312;DHT22;1668;49.648;8.570;2023-07-20T05:28:59;18.40;99.90
3312;DHT22;1668;49.648;8.570;2023-07-20T05:31:25;18.50;99.90
3312;DHT22;1668;49.648;8.570;2023-07-20T05:33:54;18.50;99.90
3312;DHT22;1668;49.648;8.570;2023-07-20T05:36:21;18.60;1.00
3312;DHT22;1668;49.648;8.570;2023-07-20T05:38:47;18.60;99.90
3312;DHT22;1668;49.648;8.570;2023-07-20T05:41:14;18.70;99.90
3312;DHT22;1668;49.648;8.570;2023-07-20T05:43:41;18.70;1.00
3312;DHT22;1668;49.648;8.570;2023-07-20T05:46:08;18.70;1.00
3312;DHT22;1668;49.648;8.570;2023-07-20T05:48:36;18.70;99.90
3312;DHT22;1668;49.648;8.570;2023-07-20T05:51:04;18.70;99.90
3312;DHT22;1668;49.648;8.570;2023-07-20T05:53:31;18.70;1.00
3312;DHT22;1668;49.648;8.570;2023-07-20T05:55:58;18.70;1.00
3312;DHT22;1668;49.648;8.570;2023-07-20T05:58:24;18.70;99.90
3312;DHT22;1668;49.648;8.570;2023-07-20T06:00:53;18.70;1.00
3312;DHT22;1668;49.648;8.570;2023-07-20T06:03:20;18.70;1.00
3312;DHT22;1668;49.648;8.570;2023-07-20T06:05:47;18.70;99.90
3312;DHT22;1668;49.648;8.570;2023-07-20T06:08:15;18.70;1.00
3312;DHT22;1668;49.648;8.570;2023-07-20T06:10:42;18.80;99.90
3312;DHT22;1668;49.648;8.570;2023-07-20T06:13:09;18.80;99.90
3312;DHT22;1668;49.648;8.570;2023-07-20T06:15:36;18.80;1.00
3312;DHT22;1668;49.648;8.570;2023-07-20T06:18:04;18.80;1.00
3312;DHT22;1668;49.648;8.570;2023-07-20T06:20:31;18.90;99.90
3312;DHT22;1668;49.648;8.570;2023-07-20T06:22:58;18.90;99.90
3312;DHT22;1668;49.648;8.570;2023-07-20T06:25:26;18.90;99.90
3312;DHT22;1668;49.648;8.570;2023-07-20T06:27:55;19.00;99.90
3312;DHT22;1668;49.648;8.570;2023-07-20T06:30:23;19.00;99.90
3312;DHT22;1668;49.648;8.570;2023-07-20T06:32:51;19.00;99.90
3312;DHT22;1668;49.648;8.570;2023-07-20T06:35:18;19.00;99.90
3312;DHT22;1668;49.648;8.570;2023-07-20T06:37:45;19.10;1.00
3312;DHT22;1668;49.648;8.570;2023-07-20T06:40:12;19.10;99.90
3312;DHT22;1668;49.648;8.570;2023-07-20T06:42:41;19.10;99.90
3312;DHT22;1668;49.648;8.570;2023-07-20T06:45:08;19.10;99.90
3312;DHT22;1668;49.648;8.570;2023-07-20T06:47:38;19.10;99.90
3312;DHT22;1668;49.648;8.570;2023-07-20T06:50:06;19.20;99.90
3312;DHT22;1668;49.648;8.570;2023-07-20T06:52:33;19.30;1.00
3312;DHT22;1668;49.648;8.570;2023-07-20T06:55:00;19.20;1.00
3312;DHT22;1668;49.648;8.570;2023-07-20T06:57:27;19.30;99.90
3312;DHT22;1668;49.648;8.570;2023-07-20T06:59:55;19.30;90.90
3312;DHT22;1668;49.648;8.570;2023-07-20T07:02:22;19.40;99.90
3312;DHT22;1668;49.648;8.570;2023-07-20T07:04:49;19.50;99.90
3312;DHT22;1668;49.648;8.570;2023-07-20T07:07:16;19.60;99.90
3312;DHT22;1668;49.648;8.570;2023-07-20T07:09:42;19.60;1.00
3312;DHT22;1668;49.648;8.570;2023-07-20T07:12:09;19.70;59.30
3312;DHT22;1668;49.648;8.570;2023-07-20T07:14:36;19.70;1.00
3312;DHT22;1668;49.648;8.570;2023-07-20T07:17:05;19.80;1.00
3312;DHT22;1668;49.648;8.570;2023-07-20T07:19:32;19.90;99.90
3312;DHT22;1668;49.648;8.570;2023-07-20T07:21:59;19.90;1.00
3312;DHT22;1668;49.648;8.570;2023-07-20T07:24:26;20.00;1.00
3312;DHT22;1668;49.648;8.570;2023-07-20T07:26:53;20.00;15.10
3312;DHT22;1668;49.648;8.570;2023-07-20T07:29:20;20.10;1.00
3312;DHT22;1668;49.648;8.570;2023-07-20T07:31:47;20.10;99.90
3312;DHT22;1668;49.648;8.570;2023-07-20T07:34:15;20.20;99.90
3312;DHT22;1668;49.648;8.570;2023-07-20T07:36:43;20.20;1.00
3312;DHT22;1668;49.648;8.570;2023-07-20T07:39:10;20.20;99.90
3312;DHT22;1668;49.648;8.570;2023-07-20T07:41:37;20.30;99.90
3312;DHT22;1668;49.648;8.570;2023-07-20T07:44:04;20.30;1.00
3312;DHT22;1668;49.648;8.570;2023-07-20T07:46:32;20.40;60.60
3312;DHT22;1668;49.648;8.570;2023-07-20T07:48:58;20.40;1.00
3312;DHT22;1668;49.648;8.570;2023-07-20T07:51:27;20.40;15.80
3312;DHT22;1668;49.648;8.570;2023-07-20T07:53:54;20.40;1.00
3312;DHT22;1668;49.648;8.570;2023-07-20T07:56:20;20.40;99.90
3312;DHT22;1668;49.648;8.570;2023-07-20T07:58:48;20.40;99.90
3312;DHT22;1668;49.648;8.570;2023-07-20T08:01:15;20.40;99.90
3312;DHT22;1668;49.648;8.570;2023-07-20T08:03:43;20.30;1.00
3312;DHT22;1668;49.648;8.570;2023-07-20T08:06:12;20.40;99.90
3312;DHT22;1668;49.648;8.570;2023-07-20T08:08:40;20.40;1.00
3312;DHT22;1668;49.648;8.570;2023-07-20T08:11:08;20.40;99.90
3312;DHT22;1668;49.648;8.570;2023-07-20T08:13:35;20.50;1.00
3312;DHT22;1668;49.648;8.570;2023-07-20T08:16:02;20.60;1.00
3312;DHT22;1668;49.648;8.570;2023-07-20T08:18:29;20.70;1.00
3312;DHT22;1668;49.648;8.570;2023-07-20T08:20:56;20.80;5.00
3312;DHT22;1668;49.648;8.570;2023-07-20T08:23:23;20.90;5.40
3312;DHT22;1668;49.648;8.570;2023-07-20T08:25:51;21.00;8.30
3312;DHT22;1668;49.648;8.570;2023-07-20T08:28:18;21.00;70.00
3312;DHT22;1668;49.648;8.570;2023-07-20T08:30:46;21.00;71.20
3312;DHT22;1668;49.648;8.570;2023-07-20T08:33:14;21.00;69.70
3312;DHT22;1668;49.648;8.570;2023-07-20T08:35:41;21.00;69.10
3312;DHT22;1668;49.648;8.570;2023-07-20T08:38:08;20.90;70.60
3312;DHT22;1668;49.648;8.570;2023-07-20T08:40:40;20.90;70.10
3312;DHT22;1668;49.648;8.570;2023-07-20T08:43:10;21.00;69.40
3312;DHT22;1668;49.648;8.570;2023-07-20T08:45:38;21.10;71.00
3312;DHT22;1668;49.648;8.570;2023-07-20T08:48:06;21.20;69.10
3312;DHT22;1668;49.648;8.570;2023-07-20T08:50:34;21.20;68.80
3312;DHT22;1668;49.648;8.570;2023-07-20T08:53:02;21.30;68.50
3312;DHT22;1668;49.648;8.570;2023-07-20T08:55:29;21.30;66.70
3312;DHT22;1668;49.648;8.570;2023-07-20T08:57:58;21.40;67.50
3312;DHT22;1668;49.648;8.570;2023-07-20T09:00:27;21.40;65.60
3312;DHT22;1668;49.648;8.570;2023-07-20T09:02:55;21.40;66.20
3312;DHT22;1668;49.648;8.570;2023-07-20T09:05:23;21.50;66.40
3312;DHT22;1668;49.648;8.570;2023-07-20T09:07:51;21.50;65.50
3312;DHT22;1668;49.648;8.570;2023-07-20T09:10:20;21.50;63.60
3312;DHT22;1668;49.648;8.570;2023-07-20T09:12:48;21.60;62.50
3312;DHT22;1668;49.648;8.570;2023-07-20T09:15:15;21.70;60.80
3312;DHT22;1668;49.648;8.570;2023-07-20T09:17:47;21.70;60.70
3312;DHT22;1668;49.648;8.570;2023-07-20T09:20:16;22.00;58.00
3312;DHT22;1668;49.648;8.570;2023-07-20T09:22:43;22.00;58.90
3312;DHT22;1668;49.648;8.570;2023-07-20T09:25:12;22.10;59.60
3312;DHT22;1668;49.648;8.570;2023-07-20T09:27:42;22.10;58.70
3312;DHT22;1668;49.648;8.570;2023-07-20T09:30:09;22.20;55.00
3312;DHT22;1668;49.648;8.570;2023-07-20T09:32:40;22.30;55.90
3312;DHT22;1668;49.648;8.570;2023-07-20T09:35:14;22.40;54.10
3312;DHT22;1668;49.648;8.570;2023-07-20T09:37:46;22.40;54.50
3312;DHT22;1668;49.648;8.570;2023-07-20T09:40:15;22.40;54.40
3312;DHT22;1668;49.648;8.570;2023-07-20T09:42:43;22.40;53.70
3312;DHT22;1668;49.648;8.570;2023-07-20T09:45:11;22.40;54.40
3312;DHT22;1668;49.648;8.570;2023-07-20T09:47:38;22.50;55.40
3312;DHT22;1668;49.648;8.570;2023-07-20T09:50:06;22.60;53.90
3312;DHT22;1668;49.648;8.570;2023-07-20T09:52:38;22.80;53.40
3312;DHT22;1668;49.648;8.570;2023-07-20T09:55:06;22.80;53.90
3312;DHT22;1668;49.648;8.570;2023-07-20T09:57:34;22.90;52.60
3312;DHT22;1668;49.648;8.570;2023-07-20T10:00:05;23.00;51.60
3312;DHT22;1668;49.648;8.570;2023-07-20T10:02:41;22.90;51.80
3312;DHT22;1668;49.648;8.570;2023-07-20T10:05:11;23.00;51.00
3312;DHT22;1668;49.648;8.570;2023-07-20T10:07:43;23.00;49.80
3312;DHT22;1668;49.648;8.570;2023-07-20T10:10:10;23.00;50.10
3312;DHT22;1668;49.648;8.570;2023-07-20T10:12:39;23.10;51.50
3312;DHT22;1668;49.648;8.570;2023-07-20T10:15:11;23.10;50.00
3312;DHT22;1668;49.648;8.570;2023-07-20T10:17:47;23.00;50.10
3312;DHT22;1668;49.648;8.570;2023-07-20T10:20:17;23.10;48.70
3312;DHT22;1668;49.648;8.570;2023-07-20T10:22:47;23.10;50.20
3312;DHT22;1668;49.648;8.570;2023-07-20T10:25:16;23.10;50.40
3312;DHT22;1668;49.648;8.570;2023-07-20T10:27:44;23.30;48.80
3312;DHT22;1668;49.648;8.570;2023-07-20T10:30:12;23.40;46.40
3312;DHT22;1668;49.648;8.570;2023-07-20T10:32:40;23.30;46.80
3312;DHT22;1668;49.648;8.570;2023-07-20T10:35:13;23.40;46.10
3312;DHT22;1668;49.648;8.570;2023-07-20T10:37:49;23.50;45.30
3312;DHT22;1668;49.648;8.570;2023-07-20T10:40:31;23.60;48.30
3312;DHT22;1668;49.648;8.570;2023-07-20T10:43:03;23.60;45.40
3312;DHT22;1668;49.648;8.570;2023-07-20T10:45:41;23.60;44.90
3312;DHT22;1668;49.648;8.570;2023-07-20T10:48:16;23.60;45.40
3312;DHT22;1668;49.648;8.570;2023-07-20T10:50:45;23.70;45.00
3312;DHT22;1668;49.648;8.570;2023-07-20T10:53:16;23.80;44.90
3312;DHT22;1668;49.648;8.570;2023-07-20T10:55:43;23.70;45.10
3312;DHT22;1668;49.648;8.570;2023-07-20T10:58:13;23.70;44.70
3312;DHT22;1668;49.648;8.570;2023-07-20T11:01:01;23.70;43.20
3312;DHT22;1668;49.648;8.570;2023-07-20T11:03:29;23.80;42.30
3312;DHT22;1668;49.648;8.570;2023-07-20T11:05:57;23.90;44.10
3312;DHT22;1668;49.648;8.570;2023-07-20T11:08:42;23.90;44.00
3312;DHT22;1668;49.648;8.570;2023-07-20T11:11:22;24.00;43.50
3312;DHT22;1668;49.648;8.570;2023-07-20T11:13:56;24.00;42.60
3312;DHT22;1668;49.648;8.570;2023-07-20T11:16:40;24.10;44.80
3312;DHT22;1668;49.648;8.570;2023-07-20T11:19:15;24.20;44.30
3312;DHT22;1668;49.648;8.570;2023-07-20T11:21:46;24.20;42.50
3312;DHT22;1668;49.648;8.570;2023-07-20T11:24:14;24.20;42.30
3312;DHT22;1668;49.648;8.570;2023-07-20T11:26:42;24.40;43.00
3312;DHT22;1668;49.648;8.570;2023-07-20T11:29:09;24.40;39.80
3312;DHT22;1668;49.648;8.570;2023-07-20T11:31:37;24.40;39.50
3312;DHT22;1668;49.648;8.570;2023-07-20T11:34:05;24.40;43.90
3312;DHT22;1668;49.648;8.570;2023-07-20T11:36:33;24.40;38.50
3312;DHT22;1668;49.648;8.570;2023-07-20T11:39:00;24.40;37.60
3312;DHT22;1668;49.648;8.570;2023-07-20T11:41:28;24.40;37.40
3312;DHT22;1668;49.648;8.570;2023-07-20T11:43:55;24.40;38.00
3312;DHT22;1668;49.648;8.570;2023-07-20T11:46:22;24.50;38.80
3312;DHT22;1668;49.648;8.570;2023-07-20T11:48:49;24.50;37.80
3312;DHT22;1668;49.648;8.570;2023-07-20T11:51:21;24.40;38.80
3312;DHT22;1668;49.648;8.570;2023-07-20T11:53:49;24.50;37.50
3312;DHT22;1668;49.648;8.570;2023-07-20T11:56:16;24.50;37.50
3312;DHT22;1668;49.648;8.570;2023-07-20T11:58:45;24.50;38.20
3312;DHT22;1668;49.648;8.570;2023-07-20T12:01:13;24.60;38.70
3312;DHT22;1668;49.648;8.570;2023-07-20T12:03:42;24.60;37.40
3312;DHT22;1668;49.648;8.570;2023-07-20T12:06:09;24.60;36.70
3312;DHT22;1668;49.648;8.570;2023-07-20T12:08:38;24.60;36.00
3312;DHT22;1668;49.648;8.570;2023-07-20T12:11:06;24.70;35.90
3312;DHT22;1668;49.648;8.570;2023-07-20T12:13:38;24.80;36.10
3312;DHT22;1668;49.648;8.570;2023-07-20T12:16:13;24.90;35.70
3312;DHT22;1668;49.648;8.570;2023-07-20T12:18:41;24.90;34.80
3312;DHT22;1668;49.648;8.570;2023-07-20T12:21:08;25.00;35.80
3312;DHT22;1668;49.648;8.570;2023-07-20T12:23:36;25.30;35.80
3312;DHT22;1668;49.648;8.570;2023-07-20T12:26:06;25.40;34.10
3312;DHT22;1668;49.648;8.570;2023-07-20T12:28:33;25.30;34.00
3312;DHT22;1668;49.648;8.570;2023-07-20T12:31:02;25.60;36.20
3312;DHT22;1668;49.648;8.570;2023-07-20T12:33:30;25.80;33.90
3312;DHT22;1668;49.648;8.570;2023-07-20T12:35:57;25.90;33.80
3312;DHT22;1668;49.648;8.570;2023-07-20T12:38:24;26.20;32.40
3312;DHT22;1668;49.648;8.570;2023-07-20T12:40:52;26.40;33.30
3312;DHT22;1668;49.648;8.570;2023-07-20T12:43:20;26.50;33.30
3312;DHT22;1668;49.648;8.570;2023-07-20T12:45:47;26.60;32.80
3312;DHT22;1668;49.648;8.570;2023-07-20T12:48:14;26.50;32.10
3312;DHT22;1668;49.648;8.570;2023-07-20T12:50:42;26.40;31.90
3312;DHT22;1668;49.648;8.570;2023-07-20T12:53:09;26.40;31.50
3312;DHT22;1668;49.648;8.570;2023-07-20T12:55:37;26.30;32.30
3312;DHT22;1668;49.648;8.570;2023-07-20T12:58:04;26.30;31.50
3312;DHT22;1668;49.648;8.570;2023-07-20T13:00:31;26.10;31.30
3312;DHT22;1668;49.648;8.570;2023-07-20T13:02:58;26.20;32.30
3312;DHT22;1668;49.648;8.570;2023-07-20T13:05:25;26.30;31.70
3312;DHT22;1668;49.648;8.570;2023-07-20T13:07:53;26.30;30.70
3312;DHT22;1668;49.648;8.570;2023-07-20T13:10:20;26.30;31.30
3312;DHT22;1668;49.648;8.570;2023-07-20T13:12:47;26.10;31.00
3312;DHT22;1668;49.648;8.570;2023-07-20T13:15:14;26.10;30.50
3312;DHT22;1668;49.648;8.570;2023-07-20T13:17:41;26.40;29.60
3312;DHT22;1668;49.648;8.570;2023-07-20T13:20:09;26.50;29.20
3312;DHT22;1668;49.648;8.570;2023-07-20T13:22:36;26.60;29.00
3312;DHT22;1668;49.648;8.570;2023-07-20T13:25:06;26.80;30.00
3312;DHT22;1668;49.648;8.570;2023-07-20T13:27:33;27.40;28.50
3312;DHT22;1668;49.648;8.570;2023-07-20T13:30:01;27.50;28.10
3312;DHT22;1668;49.648;8.570;2023-07-20T13:32:32;27.20;26.80
3312;DHT22;1668;49.648;8.570;2023-07-20T13:34:59;27.10;27.50
3312;DHT22;1668;49.648;8.570;2023-07-20T13:37:26;27.30;27.90
3312;DHT22;1668;49.648;8.570;2023-07-20T13:39:53;27.00;27.50
3312;DHT22;1668;49.648;8.570;2023-07-20T13:42:22;26.80;28.60
3312;DHT22;1668;49.648;8.570;2023-07-20T13:44:49;26.70;28.70
3312;DHT22;1668;49.648;8.570;2023-07-20T13:47:15;26.70;27.80
3312;DHT22;1668;49.648;8.570;2023-07-20T13:49:43;27.00;28.70
3312;DHT22;1668;49.648;8.570;2023-07-20T13:52:10;27.40;27.40
3312;DHT22;1668;49.648;8.570;2023-07-20T13:54:37;27.90;26.10
3312;DHT22;1668;49.648;8.570;2023-07-20T13:57:04;28.10;25.70
3312;DHT22;1668;49.648;8.570;2023-07-20T13:59:32;28.00;26.40
3312;DHT22;1668;49.648;8.570;2023-07-20T14:01:59;27.60;26.90
3312;DHT22;1668;49.648;8.570;2023-07-20T14:04:26;27.40;27.40
3312;DHT22;1668;49.648;8.570;2023-07-20T14:06:54;27.30;27.50
3312;DHT22;1668;49.648;8.570;2023-07-20T14:09:21;27.10;27.90
3312;DHT22;1668;49.648;8.570;2023-07-20T14:11:48;27.00;29.30
3312;DHT22;1668;49.648;8.570;2023-07-20T14:14:15;27.00;28.50
3312;DHT22;1668;49.648;8.570;2023-07-20T14:16:43;27.00;29.40
3312;DHT22;1668;49.648;8.570;2023-07-20T14:19:10;27.00;29.00
3312;DHT22;1668;49.648;8.570;2023-07-20T14:21:38;26.80;27.70
3312;DHT22;1668;49.648;8.570;2023-07-20T14:24:05;26.80;27.90
3312;DHT22;1668;49.648;8.570;2023-07-20T14:26:32;26.80;28.30
3312;DHT22;1668;49.648;8.570;2023-07-20T14:28:59;26.50;26.90
3312;DHT22;1668;49.648;8.570;2023-07-20T14:31:27;26.50;27.70
3312;DHT22;1668;49.648;8.570;2023-07-20T14:33:55;27.00;27.30
3312;DHT22;1668;49.648;8.570;2023-07-20T14:36:22;27.60;26.70
3312;DHT22;1668;49.648;8.570;2023-07-20T14:38:49;27.70;26.80
3312;DHT22;1668;49.648;8.570;2023-07-20T14:41:16;27.50;26.20
3312;DHT22;1668;49.648;8.570;2023-07-20T14:43:43;27.50;26.70
3312;DHT22;1668;49.648;8.570;2023-07-20T14:46:10;27.70;28.60
3312;DHT22;1668;49.648;8.570;2023-07-20T14:48:36;27.80;29.10
3312;DHT22;1668;49.648;8.570;2023-07-20T14:51:05;27.80;29.00
3312;DHT22;1668;49.648;8.570;2023-07-20T14:53:32;27.60;26.50
3312;DHT22;1668;49.648;8.570;2023-07-20T14:55:59;27.60;25.40
3312;DHT22;1668;49.648;8.570;2023-07-20T14:58:26;27.70;24.60
3312;DHT22;1668;49.648;8.570;2023-07-20T15:00:53;27.60;25.50
3312;DHT22;1668;49.648;8.570;2023-07-20T15:03:21;27.70;26.20
3312;DHT22;1668;49.648;8.570;2023-07-20T15:05:48;27.60;26.30
3312;DHT22;1668;49.648;8.570;2023-07-20T15:08:17;27.90;26.50
3312;DHT22;1668;49.648;8.570;2023-07-20T15:10:45;28.40;25.40
3312;DHT22;1668;49.648;8.570;2023-07-20T15:13:12;28.90;26.90
3312;DHT22;1668;49.648;8.570;2023-07-20T15:15:39;29.50;22.80
3312;DHT22;1668;49.648;8.570;2023-07-20T15:18:07;29.90;22.70
3312;DHT22;1668;49.648;8.570;2023-07-20T15:20:34;30.10;22.60
3312;DHT22;1668;49.648;8.570;2023-07-20T15:23:01;30.40;23.00
3312;DHT22;1668;49.648;8.570;2023-07-20T15:25:29;30.40;20.90
3312;DHT22;1668;49.648;8.570;2023-07-20T15:27:56;30.50;21.00
3312;DHT22;1668;49.648;8.570;2023-07-20T15:30:22;30.40;19.00
3312;DHT22;1668;49.648;8.570;2023-07-20T15:32:49;30.10;19.30
3312;DHT22;1668;49.648;8.570;2023-07-20T15:35:16;29.90;19.70
3312;DHT22;1668;49.648;8.570;2023-07-20T15:37:43;29.90;18.90
3312;DHT22;1668;49.648;8.570;2023-07-20T15:40:11;29.90;19.30
3312;DHT22;1668;49.648;8.570;2023-07-20T15:42:39;29.90;18.80
3312;DHT22;1668;49.648;8.570;2023-07-20T15:45:07;30.00;18.30
3312;DHT22;1668;49.648;8.570;2023-07-20T15:47:34;29.90;18.10
3312;DHT22;1668;49.648;8.570;2023-07-20T15:50:02;29.70;18.50
3312;DHT22;1668;49.648;8.570;2023-07-20T15:52:29;29.80;18.30
3312;DHT22;1668;49.648;8.570;2023-07-20T15:54:56;29.50;18.10
3312;DHT22;1668;49.648;8.570;2023-07-20T15:57:23;29.50;18.30
3312;DHT22;1668;49.648;8.570;2023-07-20T15:59:51;29.50;18.50
3312;DHT22;1668;49.648;8.570;2023-07-20T16:02:18;29.50;18.10
3312;DHT22;1668;49.648;8.570;2023-07-20T16:04:45;29.50;18.20
3312;DHT22;1668;49.648;8.570;2023-07-20T16:07:12;29.60;18.00
3312;DHT22;1668;49.648;8.570;2023-07-20T16:09:42;29.70;17.90
3312;DHT22;1668;49.648;8.570;2023-07-20T16:12:10;29.90;18.70